American Fork, Utah
Current Conditions -  °F | °C
As of 11:47 AM on Tuesday 27 Jan 2015 (Local Time) from KPVU Reporting Station
Broken Clouds Broken Clouds  
Wind Chill:   Ceiling: 8000
Heat Index:   Visibility: 10mi
Dew Point:   Wind: 3mph
Humidity: 75%   Direction: NA
Pressure: 30.26"   Gusts: NA
Location:  40.38°N, 111.79°W
Report Text: KPVU 271847Z VRB03KT 10SM BKN080 04/00 A3026
Loading
Personal Weather Stations






























Interactive Weather Map New forecast layout! Learn more

10-Day Weather Forecast

Advertisements
Track Severe Weather on mobile